createdAt,value
2024-04-17T00:00:07.498Z,82.83
2024-04-17T00:02:35.460Z,82.80
2024-04-17T00:05:03.353Z,82.63
2024-04-17T00:07:31.194Z,82.56
2024-04-17T00:09:58.966Z,82.85
2024-04-17T00:12:26.700Z,83.32
2024-04-17T00:14:54.638Z,83.54
2024-04-17T00:17:22.565Z,83.56
2024-04-17T00:19:50.655Z,83.77
2024-04-17T00:22:18.716Z,83.84
2024-04-17T00:24:46.665Z,83.83
2024-04-17T00:27:14.464Z,83.64
2024-04-17T00:29:42.380Z,83.65
2024-04-17T00:32:10.146Z,83.86
2024-04-17T00:34:38.065Z,84.13
2024-04-17T00:37:05.918Z,84.43
2024-04-17T00:39:33.743Z,84.52
2024-04-17T00:42:01.596Z,84.24
2024-04-17T00:44:29.739Z,84.10
2024-04-17T00:46:57.700Z,84.21
2024-04-17T00:49:25.613Z,84.16
2024-04-17T00:51:53.714Z,84.06
2024-04-17T00:54:22.191Z,84.46
2024-04-17T00:56:50.108Z,84.72
2024-04-17T00:59:17.971Z,84.76
2024-04-17T01:01:45.827Z,84.89
2024-04-17T01:04:13.862Z,85.31
2024-04-17T01:06:43.727Z,85.28
2024-04-17T01:09:11.469Z,85.08
2024-04-17T01:11:40.567Z,84.96
2024-04-17T01:14:09.899Z,85.18
2024-04-17T01:16:38.066Z,85.35
2024-04-17T01:19:06.285Z,85.60
2024-04-17T01:21:34.688Z,86.18
2024-04-17T01:24:02.310Z,86.46
2024-04-17T01:26:30.049Z,86.76
2024-04-17T01:28:57.998Z,86.57
2024-04-17T01:31:25.660Z,86.33
2024-04-17T01:33:53.356Z,86.01
2024-04-17T01:36:21.059Z,86.05
2024-04-17T01:38:48.959Z,85.91
2024-04-17T01:41:16.720Z,86.29
2024-04-17T01:43:44.382Z,86.66
2024-04-17T01:46:12.287Z,86.64
2024-04-17T01:48:40.056Z,86.35
2024-04-17T01:51:07.749Z,86.11
2024-04-17T01:53:35.660Z,86.53
2024-04-17T01:56:03.504Z,86.34
2024-04-17T01:58:31.318Z,86.30
2024-04-17T02:01:05.088Z,86.04
2024-04-17T02:03:34.724Z,85.69
2024-04-17T02:06:02.406Z,85.82
2024-04-17T02:08:30.144Z,85.94
2024-04-17T02:10:57.796Z,86.31
2024-04-17T02:13:25.530Z,86.46
2024-04-17T02:15:53.165Z,86.66
2024-04-17T02:18:21.463Z,86.73
2024-04-17T02:20:49.226Z,86.64
2024-04-17T02:23:16.844Z,86.51
2024-04-17T02:25:44.592Z,86.51
2024-04-17T02:28:12.503Z,86.51
2024-04-17T02:30:40.788Z,86.34
2024-04-17T02:33:09.729Z,86.30
2024-04-17T02:35:37.520Z,85.76
2024-04-17T02:38:05.409Z,85.76
2024-04-17T02:40:33.202Z,85.41
2024-04-17T02:43:01.376Z,85.69
2024-04-17T02:45:29.107Z,85.39
2024-04-17T02:47:57.517Z,85.05
2024-04-17T02:50:25.213Z,85.10
2024-04-17T02:52:52.899Z,85.35
2024-04-17T02:55:20.717Z,84.97
2024-04-17T02:57:48.489Z,84.94
2024-04-17T03:00:18.600Z,85.13
2024-04-17T03:02:46.288Z,85.30
2024-04-17T03:05:14.197Z,85.05
2024-04-17T03:07:45.390Z,84.93
2024-04-17T03:10:13.245Z,85.55
2024-04-17T03:12:40.957Z,86.13
2024-04-17T03:15:08.706Z,85.92
2024-04-17T03:17:36.442Z,85.61
2024-04-17T03:20:04.990Z,85.70
2024-04-17T03:22:32.906Z,85.25
2024-04-17T03:25:00.695Z,85.04
2024-04-17T03:27:28.433Z,85.30
2024-04-17T03:29:56.316Z,85.57
2024-04-17T03:32:24.292Z,85.50
2024-04-17T03:34:52.366Z,85.51
2024-04-17T03:37:20.256Z,85.84
2024-04-17T03:39:48.163Z,85.48
2024-04-17T03:42:17.390Z,85.25
2024-04-17T03:44:46.293Z,85.07
2024-04-17T03:47:14.149Z,85.29
2024-04-17T03:49:42.107Z,85.60
2024-04-17T03:52:10.009Z,85.44
2024-04-17T03:54:37.849Z,85.46
2024-04-17T03:57:05.716Z,85.33
2024-04-17T03:59:33.783Z,85.10
2024-04-17T04:02:06.451Z,85.07
2024-04-17T04:04:34.738Z,85.32
2024-04-17T04:07:02.903Z,85.48
2024-04-17T04:09:30.756Z,85.32
2024-04-17T04:11:58.698Z,85.14
2024-04-17T04:14:26.642Z,85.52
2024-04-17T04:16:54.896Z,85.41
2024-04-17T04:19:23.066Z,85.33
2024-04-17T04:21:50.916Z,85.51
2024-04-17T04:24:18.788Z,85.35
2024-04-17T04:26:46.578Z,85.11
2024-04-17T04:29:14.315Z,85.54
2024-04-17T04:31:42.236Z,85.71
2024-04-17T04:34:10.101Z,85.91
2024-04-17T04:36:37.935Z,85.63
2024-04-17T04:39:06.219Z,85.45
2024-04-17T04:41:34.239Z,85.46
2024-04-17T04:44:02.076Z,85.54
2024-04-17T04:46:29.966Z,85.41
2024-04-17T04:48:57.827Z,85.42
2024-04-17T04:51:25.788Z,85.93
2024-04-17T04:53:53.657Z,85.58
2024-04-17T04:56:21.522Z,85.52
2024-04-17T04:58:49.564Z,85.76
2024-04-17T05:01:18.778Z,86.05
2024-04-17T05:03:46.634Z,86.23
2024-04-17T05:06:14.473Z,86.19
2024-04-17T05:08:42.307Z,86.18
2024-04-17T05:11:13.055Z,85.77
2024-04-17T05:13:41.110Z,85.98
2024-04-17T05:16:10.921Z,85.98
2024-04-17T05:18:39.054Z,86.14
2024-04-17T05:21:06.994Z,86.40
2024-04-17T05:23:34.809Z,86.26
2024-04-17T05:26:02.753Z,86.58
2024-04-17T05:28:30.670Z,86.35
2024-04-17T05:30:59.606Z,86.19
2024-04-17T05:33:27.818Z,85.95
2024-04-17T05:35:55.606Z,86.47
2024-04-17T05:38:23.559Z,86.32
2024-04-17T05:40:51.491Z,86.59
2024-04-17T05:43:19.434Z,86.79
2024-04-17T05:45:47.682Z,86.51
2024-04-17T05:48:15.725Z,86.29
2024-04-17T05:50:43.699Z,86.43
2024-04-17T05:53:11.465Z,86.92
2024-04-17T05:55:42.281Z,86.94
2024-04-17T05:58:10.142Z,87.18
2024-04-17T06:00:38.205Z,87.22
2024-04-17T06:03:06.411Z,87.22
2024-04-17T06:05:34.974Z,87.34
2024-04-17T06:08:02.861Z,87.48
2024-04-17T06:10:30.926Z,87.45
2024-04-17T06:12:59.364Z,87.66
2024-04-17T06:15:27.188Z,88.18
2024-04-17T06:17:57.047Z,88.14
2024-04-17T06:20:26.548Z,87.94
2024-04-17T06:22:54.341Z,86.96
2024-04-17T06:25:22.292Z,86.44
2024-04-17T06:27:50.297Z,87.00
2024-04-17T06:30:18.645Z,87.21
2024-04-17T06:32:46.651Z,87.56
2024-04-17T06:35:14.967Z,87.80
2024-04-17T06:37:42.905Z,87.51
2024-04-17T06:40:10.863Z,87.58
2024-04-17T06:42:38.892Z,87.82
2024-04-17T06:45:07.658Z,88.20
2024-04-17T06:47:35.501Z,87.82
2024-04-17T06:50:04.243Z,87.60
2024-04-17T06:52:32.238Z,87.06
2024-04-17T06:55:00.202Z,87.11
2024-04-17T06:57:28.124Z,86.99
2024-04-17T06:59:56.082Z,87.31
2024-04-17T07:02:24.216Z,87.29
2024-04-17T07:04:52.413Z,87.20
2024-04-17T07:07:20.739Z,87.37
2024-04-17T07:09:48.663Z,87.15
2024-04-17T07:12:17.550Z,87.28
2024-04-17T07:14:45.680Z,86.99
2024-04-17T07:17:15.414Z,86.93
2024-04-17T07:19:44.556Z,87.08
2024-04-17T07:22:12.422Z,87.46
2024-04-17T07:24:40.280Z,87.50
2024-04-17T07:27:08.285Z,87.60
2024-04-17T07:29:36.139Z,87.84
2024-04-17T07:32:04.493Z,87.52
2024-04-17T07:34:32.588Z,87.52
2024-04-17T07:37:00.305Z,87.59
2024-04-17T07:39:28.139Z,87.71
2024-04-17T07:41:56.738Z,88.08
2024-04-17T07:44:24.862Z,88.00
2024-04-17T07:46:52.698Z,88.22
2024-04-17T07:49:20.519Z,88.09
2024-04-17T07:51:48.466Z,88.07
2024-04-17T07:54:16.297Z,87.86
2024-04-17T07:56:44.504Z,87.93
2024-04-17T07:59:12.384Z,87.87
2024-04-17T08:01:40.330Z,87.72
2024-04-17T08:04:08.235Z,87.77
2024-04-17T08:06:36.424Z,87.85
2024-04-17T08:09:04.564Z,87.78
2024-04-17T08:11:38.257Z,87.64
2024-04-17T08:14:07.139Z,87.36
2024-04-17T08:16:35.158Z,87.30
2024-04-17T08:19:03.077Z,87.59
2024-04-17T08:21:32.157Z,87.89
2024-04-17T08:24:00.166Z,88.17
2024-04-17T08:26:28.070Z,88.10
2024-04-17T08:28:56.187Z,87.95
2024-04-17T08:31:24.353Z,88.55
2024-04-17T08:33:52.238Z,88.15
2024-04-17T08:36:20.303Z,87.56
2024-04-17T08:38:48.249Z,87.20
2024-04-17T08:41:15.996Z,87.62
2024-04-17T08:43:45.133Z,88.09
2024-04-17T08:46:14.702Z,88.58
2024-04-17T08:48:44.044Z,88.53
2024-04-17T08:51:12.988Z,87.98
2024-04-17T08:53:41.478Z,87.61
2024-04-17T08:56:10.189Z,87.57
2024-04-17T08:58:38.287Z,87.83
2024-04-17T09:01:07.912Z,88.40
2024-04-17T09:03:39.621Z,88.90
2024-04-17T09:06:10.239Z,88.86
2024-04-17T09:08:38.613Z,88.49
2024-04-17T09:11:09.344Z,87.95
2024-04-17T09:13:37.489Z,86.96
2024-04-17T09:16:05.454Z,86.24
2024-04-17T09:18:34.323Z,86.59
2024-04-17T09:21:02.177Z,86.70
2024-04-17T09:23:30.042Z,86.74
2024-04-17T09:25:58.085Z,87.01
2024-04-17T09:28:25.977Z,87.13
2024-04-17T09:30:53.973Z,87.26
2024-04-17T09:33:21.944Z,87.36
2024-04-17T09:35:52.614Z,87.12
2024-04-17T09:38:21.387Z,86.86
2024-04-17T09:40:49.166Z,86.41
2024-04-17T09:43:29.256Z,85.97
2024-04-17T09:46:09.057Z,86.63
2024-04-17T09:48:38.693Z,86.79
2024-04-17T09:51:11.949Z,86.34
2024-04-17T09:53:50.980Z,86.18
2024-04-17T09:56:19.728Z,86.38
2024-04-17T09:58:56.807Z,86.67
2024-04-17T10:01:33.157Z,86.46
2024-04-17T10:04:02.742Z,86.32
2024-04-17T10:06:31.775Z,86.05
2024-04-17T10:09:00.320Z,85.92
2024-04-17T10:11:28.871Z,86.27
2024-04-17T10:13:59.212Z,86.34
2024-04-17T10:16:27.400Z,85.93
2024-04-17T10:18:55.563Z,85.47
2024-04-17T10:21:27.386Z,85.05
2024-04-17T10:24:02.458Z,85.05
2024-04-17T10:26:59.397Z,85.04
2024-04-17T10:29:29.427Z,85.18
2024-04-17T10:31:57.415Z,85.23
2024-04-17T10:34:27.535Z,84.98
2024-04-17T10:36:59.888Z,85.54
2024-04-17T10:39:28.878Z,86.01
2024-04-17T10:42:01.250Z,86.18
2024-04-17T10:44:29.706Z,86.30
2024-04-17T10:47:07.232Z,86.59
2024-04-17T10:49:41.424Z,86.25
2024-04-17T10:52:10.260Z,85.67
2024-04-17T10:54:38.780Z,85.67
2024-04-17T10:57:07.260Z,85.80
2024-04-17T10:59:35.206Z,85.90
2024-04-17T11:02:03.145Z,86.14
2024-04-17T11:04:31.423Z,86.00
2024-04-17T11:06:59.363Z,85.48
2024-04-17T11:09:27.239Z,85.46
2024-04-17T11:11:55.955Z,85.57
2024-04-17T11:14:23.927Z,85.66
2024-04-17T11:16:51.796Z,85.47
2024-04-17T11:19:19.893Z,85.71
2024-04-17T11:21:50.349Z,85.48
2024-04-17T11:24:19.219Z,85.06
2024-04-17T11:26:47.803Z,84.88
2024-04-17T11:29:33.056Z,84.81
2024-04-17T11:32:06.288Z,84.52
2024-04-17T11:34:34.216Z,84.70
2024-04-17T11:37:08.614Z,84.99
2024-04-17T11:39:39.139Z,84.66
2024-04-17T11:42:10.504Z,84.85
2024-04-17T11:44:39.215Z,85.24
2024-04-17T11:47:15.170Z,85.71
2024-04-17T11:49:43.771Z,85.68
2024-04-17T11:52:13.376Z,85.46
2024-04-17T11:54:41.758Z,85.59
2024-04-17T11:57:14.483Z,85.48
2024-04-17T11:59:45.680Z,85.21
2024-04-17T12:02:13.388Z,84.77
2024-04-17T12:04:43.712Z,84.52
2024-04-17T12:07:11.967Z,83.90
2024-04-17T12:09:39.882Z,83.62
2024-04-17T12:12:07.786Z,83.72
2024-04-17T12:14:35.613Z,83.34
2024-04-17T12:17:03.521Z,83.47
2024-04-17T12:19:31.489Z,83.78
2024-04-17T12:22:00.683Z,83.99
2024-04-17T12:24:48.654Z,84.03
2024-04-17T12:27:17.230Z,84.27
2024-04-17T12:29:45.161Z,84.22
2024-04-17T12:32:13.141Z,84.40
2024-04-17T12:34:41.134Z,84.97
2024-04-17T12:37:11.047Z,84.87
2024-04-17T12:39:39.162Z,84.54
2024-04-17T12:42:07.289Z,84.16
2024-04-17T12:44:35.137Z,84.29
2024-04-17T12:47:03.620Z,84.56
2024-04-17T12:49:31.540Z,84.69
2024-04-17T12:51:59.814Z,84.73
2024-04-17T12:54:27.752Z,84.41
2024-04-17T12:56:55.567Z,84.08
2024-04-17T12:59:23.349Z,83.54
2024-04-17T13:01:51.159Z,83.10
2024-04-17T13:04:19.220Z,83.04
2024-04-17T13:06:49.915Z,82.95
2024-04-17T13:09:17.901Z,82.51
2024-04-17T13:11:46.482Z,82.61
2024-04-17T13:14:14.198Z,82.20
2024-04-17T13:16:41.954Z,82.11
2024-04-17T13:19:09.680Z,82.15
2024-04-17T13:21:37.653Z,81.94
2024-04-17T13:24:06.551Z,81.79
2024-04-17T13:26:34.569Z,81.58
2024-04-17T13:29:02.559Z,81.78
2024-04-17T13:31:30.508Z,82.00
2024-04-17T13:33:58.542Z,82.13
2024-04-17T13:36:26.480Z,82.18
2024-04-17T13:38:54.850Z,82.01
2024-04-17T13:41:22.789Z,81.95
2024-04-17T13:43:50.608Z,82.49
2024-04-17T13:46:19.815Z,82.59
2024-04-17T13:48:49.059Z,82.73
2024-04-17T13:51:19.578Z,82.48
2024-04-17T13:53:53.825Z,81.77
2024-04-17T13:56:23.552Z,81.30
2024-04-17T13:58:51.531Z,81.19
2024-04-17T14:01:19.434Z,81.23
2024-04-17T14:03:47.396Z,81.47
2024-04-17T14:06:15.468Z,81.28
2024-04-17T14:08:43.447Z,81.41
2024-04-17T14:11:11.227Z,81.18
2024-04-17T14:13:39.111Z,80.56
2024-04-17T14:16:07.504Z,80.12
2024-04-17T14:18:35.783Z,80.26
2024-04-17T14:21:07.778Z,80.29
2024-04-17T14:23:35.590Z,80.16
2024-04-17T14:26:03.518Z,80.40
2024-04-17T14:28:32.164Z,80.10
2024-04-17T14:31:03.983Z,80.40
2024-04-17T14:33:34.668Z,79.82
2024-04-17T14:36:07.000Z,79.78
2024-04-17T14:38:39.793Z,79.86
2024-04-17T14:41:08.743Z,79.67
2024-04-17T14:43:37.282Z,79.43
2024-04-17T14:46:07.096Z,79.76
2024-04-17T14:48:35.735Z,79.97
2024-04-17T14:51:08.830Z,80.41
2024-04-17T14:53:40.628Z,80.30
2024-04-17T14:56:09.046Z,79.80
2024-04-17T14:58:38.286Z,79.66
2024-04-17T15:01:08.152Z,79.31
2024-04-17T15:03:37.360Z,79.52
2024-04-17T15:06:07.432Z,79.70
2024-04-17T15:08:36.783Z,79.86
2024-04-17T15:11:09.700Z,80.09
2024-04-17T15:13:38.600Z,80.13
2024-04-17T15:16:11.267Z,80.39
2024-04-17T15:18:43.359Z,80.18
2024-04-17T15:21:13.860Z,80.07
2024-04-17T15:23:45.899Z,80.28
2024-04-17T15:26:15.543Z,80.70
2024-04-17T15:28:43.885Z,80.76
2024-04-17T15:31:16.329Z,80.39
2024-04-17T15:33:48.905Z,79.89
2024-04-17T15:36:17.811Z,80.16
2024-04-17T15:38:48.704Z,79.59
2024-04-17T15:41:16.458Z,79.36
2024-04-17T15:43:45.691Z,79.58
2024-04-17T15:46:15.456Z,79.43
2024-04-17T15:48:44.798Z,79.18
2024-04-17T15:51:17.659Z,79.09
2024-04-17T15:53:47.201Z,78.79
2024-04-17T15:56:20.250Z,78.72
2024-04-17T15:58:49.821Z,78.70
2024-04-17T16:01:19.025Z,78.52
2024-04-17T16:03:52.420Z,78.21
